Time;durP1;ratioP1;P1;durP2;ratioP2;P2;SDS_P1;SDS_P2;PMS_P1;PMS_P2;Temp;Humidity;BMP_temperature;BMP_pressure;BME280_temperature;BME280_humidity;BME280_pressure;Samples;Min_cycle;Max_cycle;Signal;HPM_P1;HPM_P2
2022/04/06 00:00:37;;;;;;;7.03;6.30;;;;;;;12.87;62.36;98430.50;4136446;28;20235;-32
2022/04/06 00:02:40;;;;;;;7.80;6.70;;;;;;;13.46;60.44;98435.97;4136214;28;20238;-30
2022/04/06 00:04:41;;;;;;;6.60;5.90;;;;;;;11.67;64.32;98419.59;4135977;28;20267;-32
2022/04/06 00:06:43;;;;;;;7.53;6.50;;;;;;;12.67;63.26;98459.81;4135301;28;20699;-31
2022/04/06 00:08:51;;;;;;;7.27;6.33;;;;;;;13.25;61.39;98431.69;4134112;28;20210;-31
2022/04/06 00:10:53;;;;;;;7.50;6.37;;;;;;;13.10;61.99;98423.94;4130564;28;20248;-30
2022/04/06 00:12:55;;;;;;;7.57;6.17;;;;;;;13.43;60.68;98415.03;4139038;28;20249;-32
2022/04/06 00:14:57;;;;;;;7.10;6.27;;;;;;;12.37;62.44;98380.25;4139134;28;20624;-30
2022/04/06 00:17:03;;;;;;;7.73;6.80;;;;;;;10.88;67.57;98440.22;4136888;28;20307;-31
2022/04/06 00:19:05;;;;;;;6.93;6.23;;;;;;;10.65;69.35;98479.44;4139393;28;20669;-31
2022/04/06 00:21:08;;;;;;;7.07;6.37;;;;;;;10.85;69.16;98491.13;4141412;28;20233;-31
2022/04/06 00:23:10;;;;;;;8.57;6.53;;;;;;;11.47;67.80;98472.72;4137919;28;20287;-32
2022/04/06 00:25:12;;;;;;;9.53;6.60;;;;;;;11.32;68.22;98475.50;4139895;28;20426;-31
2022/04/06 00:27:14;;;;;;;8.87;7.03;;;;;;;10.69;68.88;98428.38;4139479;28;20287;-30
2022/04/06 00:29:16;;;;;;;7.83;6.53;;;;;;;11.47;67.99;98464.75;4139128;28;20299;-30
2022/04/06 00:31:18;;;;;;;9.87;6.50;;;;;;;11.60;66.16;98398.25;4139846;28;20237;-31
2022/04/06 00:33:20;;;;;;;7.70;6.60;;;;;;;10.76;69.39;98450.53;4139033;28;20233;-32
2022/04/06 00:35:32;;;;;;;7.00;6.30;;;;;;;11.98;65.89;98421.75;4139275;28;20236;-32
2022/04/06 00:37:33;;;;;;;7.47;6.63;;;;;;;11.01;68.79;98451.97;4128404;28;20235;-30
2022/04/06 00:39:35;;;;;;;9.50;7.53;;;;;;;11.71;66.04;98397.69;4132797;28;20297;-31
2022/04/06 00:41:39;;;;;;;11.37;7.00;;;;;;;11.69;66.09;98407.72;4139833;28;20300;-30
2022/04/06 00:43:40;;;;;;;7.10;6.33;;;;;;;10.68;69.43;98445.34;4139890;28;20241;-33
2022/04/06 00:45:43;;;;;;;8.60;6.63;;;;;;;10.45;70.43;98464.16;4138288;28;20615;-31
2022/04/06 00:47:45;;;;;;;7.33;6.30;;;;;;;10.17;69.33;98401.13;4139085;28;20238;-31
2022/04/06 00:49:47;;;;;;;7.20;6.23;;;;;;;11.45;67.94;98442.84;4138861;28;20430;-30
2022/04/06 00:51:50;;;;;;;7.97;6.47;;;;;;;12.24;64.29;98388.22;4138319;28;20242;-31
2022/04/06 00:53:52;;;;;;;8.27;6.80;;;;;;;10.75;68.04;98402.84;4136840;28;20233;-31
2022/04/06 00:55:54;;;;;;;8.00;6.47;;;;;;;11.09;67.47;98411.91;4139573;28;20225;-31
2022/04/06 00:57:56;;;;;;;7.40;6.60;;;;;;;10.52;68.30;98392.47;4138265;28;20288;-30
2022/04/06 00:59:58;;;;;;;7.07;6.33;;;;;;;10.56;68.36;98407.81;4137211;28;20237;-30
2022/04/06 01:02:00;;;;;;;8.43;6.40;;;;;;;10.50;68.39;98387.34;4138795;28;20241;-30
2022/04/06 01:04:03;;;;;;;6.93;6.23;;;;;;;10.80;69.77;98454.47;4138754;28;20652;-29
2022/04/06 01:06:05;;;;;;;8.30;6.07;;;;;;;10.34;69.77;98441.56;4138693;28;20316;-32
2022/04/06 01:08:07;;;;;;;7.50;6.63;;;;;;;11.70;65.88;98393.38;4135580;28;20340;-30
2022/04/06 01:10:09;;;;;;;9.23;7.17;;;;;;;10.84;66.62;98337.91;4131388;28;20233;-30
2022/04/06 01:12:12;;;;;;;9.37;6.80;;;;;;;9.92;70.15;98400.66;4139730;28;20250;-30
2022/04/06 01:14:14;;;;;;;7.93;6.77;;;;;;;10.32;69.73;98430.28;4140258;28;20698;-30
2022/04/06 01:16:16;;;;;;;10.03;7.33;;;;;;;10.51;68.72;98388.97;4137979;28;20256;-30
2022/04/06 01:18:18;;;;;;;8.50;6.70;;;;;;;12.07;65.04;98391.25;4133858;28;20236;-31
2022/04/06 01:20:19;;;;;;;9.23;6.83;;;;;;;11.06;66.50;98351.94;4134108;28;20328;-31
2022/04/06 01:22:21;;;;;;;7.63;6.83;;;;;;;10.99;66.42;98330.63;4139598;28;20249;-31
2022/04/06 01:24:23;;;;;;;7.90;6.93;;;;;;;12.54;63.65;98363.81;4138710;28;20233;-30
2022/04/06 01:26:25;;;;;;;7.93;6.97;;;;;;;11.50;66.55;98413.78;4120566;28;20236;-30
2022/04/06 01:28:27;;;;;;;7.90;6.73;;;;;;;12.33;63.94;98375.53;4137533;28;20247;-32
2022/04/06 01:30:29;;;;;;;8.63;7.07;;;;;;;12.83;62.07;98339.38;4136707;28;20241;-30
2022/04/06 01:32:32;;;;;;;8.97;7.07;;;;;;;12.47;62.49;98313.16;4137902;28;20245;-30
2022/04/06 01:34:34;;;;;;;8.00;6.23;;;;;;;12.44;62.57;98319.75;4126003;28;20592;-31
2022/04/06 01:36:36;;;;;;;7.27;6.30;;;;;;;12.10;64.46;98390.88;4135943;28;20815;-31
2022/04/06 01:38:38;;;;;;;8.27;7.00;;;;;;;12.68;62.56;98365.47;4137484;28;20612;-30
2022/04/06 01:40:39;;;;;;;8.23;6.33;;;;;;;12.36;63.81;98373.25;4134076;28;20292;-31
2022/04/06 01:42:41;;;;;;;6.77;5.73;;;;;;;11.98;64.15;98351.69;4138944;28;20245;-30
2022/04/06 01:44:45;;;;;;;7.87;6.70;;;;;;;12.22;64.63;98363.63;4139107;28;20312;-29
2022/04/06 01:46:46;;;;;;;6.50;5.60;;;;;;;13.00;61.98;98365.66;4135128;28;20234;-31
2022/04/06 01:53:29;;;;;;;6.97;6.10;;;;;;;11.12;66.19;98321.06;4118889;28;20243;-32
2022/04/06 01:55:31;;;;;;;6.17;5.37;;;;;;;11.81;66.45;98399.16;4124672;28;20237;-33
2022/04/06 01:57:34;;;;;;;7.23;5.93;;;;;;;12.10;64.72;98366.06;4114019;28;20236;-30
2022/04/06 01:59:36;;;;;;;6.83;5.03;;;;;;;10.97;67.86;98377.06;4125430;28;20288;-29
2022/04/06 02:01:37;;;;;;;7.43;5.30;;;;;;;10.73;69.23;98418.19;4114536;28;20693;-30
2022/04/06 02:03:39;;;;;;;7.13;6.07;;;;;;;12.91;62.39;98345.53;4124360;28;20234;-31
2022/04/06 02:05:43;;;;;;;7.87;5.50;;;;;;;13.17;61.33;98334.81;4118728;28;20595;-30
2022/04/06 02:07:48;;;;;;;7.13;5.93;;;;;;;13.07;61.72;98333.63;4121052;28;20655;-31
2022/04/06 02:09:50;;;;;;;6.30;5.70;;;;;;;11.74;65.03;98354.66;4132595;28;20678;-29
2022/04/06 02:11:52;;;;;;;6.80;5.30;;;;;;;10.75;67.42;98339.03;4138991;28;20697;-30
2022/04/06 02:13:53;;;;;;;7.27;6.07;;;;;;;11.92;65.99;98377.31;4136898;28;20238;-30
2022/04/06 02:15:55;;;;;;;6.30;5.67;;;;;;;11.87;65.81;98364.59;4139725;28;20733;-31
2022/04/06 02:17:57;;;;;;;6.80;5.70;;;;;;;12.24;64.22;98348.25;4137697;28;20252;-31
2022/04/06 02:19:59;;;;;;;6.60;5.90;;;;;;;12.71;62.75;98338.38;4138646;28;20695;-31
2022/04/06 02:22:00;;;;;;;6.33;5.50;;;;;;;12.23;64.30;98344.75;4138820;28;20710;-31
2022/04/06 02:24:02;;;;;;;6.50;5.47;;;;;;;12.72;62.93;98342.69;4137306;28;20241;-30
2022/04/06 02:26:04;;;;;;;6.60;5.90;;;;;;;11.54;66.59;98361.78;4137199;28;20238;-31
2022/04/06 02:28:06;;;;;;;7.27;5.93;;;;;;;12.56;63.66;98349.28;4138744;28;20973;-31
2022/04/06 02:30:09;;;;;;;6.83;5.87;;;;;;;11.34;67.23;98383.81;4139215;28;20299;-32
2022/04/06 02:32:11;;;;;;;6.53;5.47;;;;;;;12.48;63.73;98346.81;4137303;28;20245;-31
2022/04/06 02:34:13;;;;;;;6.87;5.73;;;;;;;11.89;66.00;98377.69;4135792;28;20620;-30
2022/04/06 02:36:15;;;;;;;6.17;5.23;;;;;;;11.79;65.47;98346.09;4138611;28;20230;-32
2022/04/06 02:38:17;;;;;;;6.70;5.53;;;;;;;11.94;65.49;98366.44;4129700;28;20738;-31
2022/04/06 02:40:19;;;;;;;7.97;5.87;;;;;;;12.45;63.78;98342.72;4130352;28;20691;-30
2022/04/06 02:42:20;;;;;;;6.60;5.90;;;;;;;13.03;62.07;98336.72;4136228;28;20284;-32
2022/04/06 02:44:22;;;;;;;6.57;5.80;;;;;;;11.82;65.78;98367.00;4138246;28;20268;-29
2022/04/06 02:46:24;;;;;;;6.33;5.40;;;;;;;12.89;62.81;98352.94;4136582;28;20233;-30
2022/04/06 02:48:25;;;;;;;9.37;6.37;;;;;;;13.01;62.10;98340.59;4138351;28;20228;-31
2022/04/06 02:50:27;;;;;;;6.50;5.60;;;;;;;12.44;63.53;98335.75;4138266;28;20267;-31
2022/04/06 02:52:29;;;;;;;7.33;5.13;;;;;;;11.87;65.88;98377.09;4137376;28;20500;-32
2022/04/06 02:54:31;;;;;;;6.33;5.70;;;;;;;12.43;63.72;98328.75;4123741;28;20283;-32
2022/04/06 02:56:33;;;;;;;6.67;5.60;;;;;;;12.73;62.22;98298.19;4135700;28;20232;-34
2022/04/06 02:58:35;;;;;;;6.67;5.40;;;;;;;13.23;61.80;98335.84;4114334;28;20297;-30
2022/04/06 03:00:36;;;;;;;6.73;5.80;;;;;;;13.67;60.21;98303.97;4117931;28;20242;-30
2022/04/06 03:02:38;;;;;;;5.87;5.27;;;;;;;12.76;63.11;98332.44;4136649;28;20301;-31
2022/04/06 03:04:40;;;;;;;6.97;5.50;;;;;;;11.67;63.88;98265.16;4135862;28;20305;-31
2022/04/06 03:06:41;;;;;;;5.57;4.97;;;;;;;12.37;64.03;98323.44;4137020;28;20244;-31
2022/04/06 03:08:43;;;;;;;7.60;6.80;;;;;;;12.58;63.17;98330.41;4135038;28;20590;-31
2022/04/06 03:10:45;;;;;;;6.57;5.60;;;;;;;12.75;63.16;98326.25;4131043;28;20649;-31
2022/04/06 03:12:47;;;;;;;6.17;5.13;;;;;;;13.16;62.06;98333.19;4128477;28;20297;-36
2022/04/06 03:14:49;;;;;;;6.50;5.53;;;;;;;11.81;64.76;98281.97;4134625;28;20264;-32
2022/04/06 03:16:50;;;;;;;6.67;5.60;;;;;;;12.60;63.35;98297.16;4137356;28;20620;-32
2022/04/06 03:18:52;;;;;;;6.57;5.23;;;;;;;12.55;63.26;98299.63;4138200;28;20658;-30
2022/04/06 03:20:54;;;;;;;5.97;5.30;;;;;;;11.22;66.80;98316.22;4137408;28;20292;-31
2022/04/06 03:22:56;;;;;;;6.33;5.30;;;;;;;13.07;61.91;98281.06;4136656;28;20316;-32
2022/04/06 03:24:58;;;;;;;7.93;5.70;;;;;;;12.92;62.50;98300.00;4135942;28;20291;-34
2022/04/06 03:26:59;;;;;;;7.33;5.57;;;;;;;12.78;62.25;98256.50;4138024;28;20731;-31
2022/04/06 03:29:01;;;;;;;6.10;5.30;;;;;;;13.32;61.50;98299.84;4138218;28;20237;-31
2022/04/06 03:31:03;;;;;;;6.80;5.47;;;;;;;11.99;65.05;98306.22;4137535;28;20237;-30
2022/04/06 03:33:06;;;;;;;8.63;5.70;;;;;;;12.55;63.90;98320.97;4137850;28;20242;-31
2022/04/06 03:35:09;;;;;;;6.77;5.40;;;;;;;12.98;61.86;98267.16;4138304;28;20295;-31
2022/04/06 03:37:10;;;;;;;8.03;5.20;;;;;;;12.94;62.61;98289.13;4127399;28;20281;-31
2022/04/06 03:39:12;;;;;;;5.53;5.00;;;;;;;12.41;63.86;98266.03;4132618;28;20240;-30
2022/04/06 03:41:14;;;;;;;8.43;5.00;;;;;;;12.30;64.54;98288.78;4131456;28;20409;-31
2022/04/06 03:43:16;;;;;;;6.13;5.20;;;;;;;12.04;66.03;98329.56;4123864;28;20225;-31
2022/04/06 03:45:17;;;;;;;6.87;5.17;;;;;;;12.89;63.00;98300.41;4134821;28;20589;-30
2022/04/06 03:47:19;;;;;;;8.07;5.20;;;;;;;11.70;64.92;98249.59;4138216;28;20233;-31
2022/04/06 03:49:21;;;;;;;5.33;4.53;;;;;;;11.91;66.21;98331.22;4140019;28;20222;-30
2022/04/06 03:51:22;;;;;;;5.23;4.70;;;;;;;12.84;62.88;98276.19;4140290;28;20561;-32
2022/04/06 03:53:24;;;;;;;6.30;5.17;;;;;;;12.93;62.40;98269.63;4140303;28;20233;-30
2022/04/06 03:55:26;;;;;;;6.23;5.33;;;;;;;12.52;63.85;98275.22;4141414;28;20244;-30
2022/04/06 03:57:28;;;;;;;5.60;4.87;;;;;;;12.68;64.08;98298.78;4138143;28;20524;-31
2022/04/06 03:59:30;;;;;;;5.13;4.63;;;;;;;12.57;64.59;98304.75;4132009;28;20222;-30
2022/04/06 04:01:35;;;;;;;5.90;4.93;;;;;;;13.37;62.06;98292.03;4138348;28;20233;-31
2022/04/06 04:03:37;;;;;;;5.53;4.40;;;;;;;13.13;63.28;98295.41;4135677;28;20327;-29
2022/04/06 04:05:39;;;;;;;7.60;4.77;;;;;;;12.57;63.95;98272.75;4134499;28;20264;-30
2022/04/06 04:07:40;;;;;;;6.30;5.20;;;;;;;13.10;62.73;98294.00;4137767;28;20280;-31
2022/04/06 04:09:42;;;;;;;6.90;4.67;;;;;;;12.14;65.36;98289.22;4130380;28;20241;-30
2022/04/06 04:11:44;;;;;;;5.50;4.63;;;;;;;12.95;62.52;98264.91;4133086;28;20233;-30
2022/04/06 04:13:45;;;;;;;5.33;4.50;;;;;;;13.09;62.34;98264.84;4138745;28;20245;-31
2022/04/06 04:15:47;;;;;;;4.93;4.20;;;;;;;12.51;64.52;98284.28;4137752;28;20234;-31
2022/04/06 04:17:49;;;;;;;5.23;4.47;;;;;;;13.79;61.31;98275.56;4114872;28;20250;-29
2022/04/06 04:19:50;;;;;;;5.53;4.93;;;;;;;13.27;62.16;98237.47;4135017;28;20285;-31
2022/04/06 04:21:52;;;;;;;5.63;4.53;;;;;;;13.08;62.31;98239.19;4139882;28;20244;-31
2022/04/06 04:23:54;;;;;;;7.30;5.20;;;;;;;12.90;63.00;98285.25;4139716;28;20229;-30
2022/04/06 04:25:56;;;;;;;5.07;4.13;;;;;;;13.18;61.62;98240.38;4140851;28;20236;-32
2022/04/06 04:27:57;;;;;;;5.47;4.70;;;;;;;13.85;60.85;98276.56;4140804;28;20745;-30
2022/04/06 04:29:59;;;;;;;4.33;3.93;;;;;;;13.60;61.25;98269.28;4140173;28;20237;-32
2022/04/06 04:32:10;;;;;;;4.97;4.47;;;;;;;13.08;62.48;98250.69;4140763;28;20721;-32
2022/04/06 04:34:13;;;;;;;4.93;4.43;;;;;;;13.08;62.25;98236.50;4139038;28;20264;-31
2022/04/06 04:36:16;;;;;;;4.80;4.27;;;;;;;13.13;62.02;98242.88;4139198;28;20242;-30
2022/04/06 04:38:17;;;;;;;4.50;4.10;;;;;;;13.38;61.48;98252.78;4139783;28;20235;-31
2022/04/06 04:40:21;;;;;;;4.30;3.90;;;;;;;13.39;61.04;98233.88;4134281;28;20234;-31
2022/04/06 04:42:22;;;;;;;5.87;4.10;;;;;;;13.26;61.02;98215.28;4138128;28;20237;-31
2022/04/06 04:44:24;;;;;;;4.30;3.90;;;;;;;13.21;61.80;98250.63;4139706;28;20237;-30
2022/04/06 04:46:26;;;;;;;4.37;3.97;;;;;;;12.90;62.53;98253.22;4140481;28;20421;-31
2022/04/06 04:48:28;;;;;;;4.93;4.00;;;;;;;12.56;63.67;98231.16;4140220;28;20275;-31
2022/04/06 04:50:30;;;;;;;6.23;3.80;;;;;;;12.59;64.07;98282.19;4132893;28;20265;-30
2022/04/06 04:52:32;;;;;;;5.93;3.53;;;;;;;13.09;62.21;98254.97;4111414;28;20678;-31
2022/04/06 04:54:33;;;;;;;4.70;3.97;;;;;;;12.95;62.98;98258.75;4140383;28;20581;-30
2022/04/06 04:56:35;;;;;;;5.23;3.93;;;;;;;12.74;62.84;98220.63;4138798;28;20264;-31
2022/04/06 04:58:37;;;;;;;7.00;4.87;;;;;;;13.20;62.61;98253.50;4138553;28;20516;-32
2022/04/06 05:00:39;;;;;;;4.53;4.10;;;;;;;13.57;61.28;98243.03;4133487;28;20234;-32
2022/04/06 05:02:40;;;;;;;4.40;4.00;;;;;;;13.12;62.11;98233.22;4141070;28;20293;-30
2022/04/06 05:04:42;;;;;;;4.23;3.83;;;;;;;12.82;63.45;98256.91;4137517;28;20814;-30
2022/04/06 05:06:44;;;;;;;4.23;3.53;;;;;;;11.02;69.53;98324.13;4138472;28;20234;-32
2022/04/06 05:08:46;;;;;;;3.47;3.17;;;;;;;11.52;66.21;98230.72;4135067;28;20279;-30
2022/04/06 05:10:47;;;;;;;4.40;3.70;;;;;;;11.02;68.46;98262.09;4136635;28;20213;-32
2022/04/06 05:12:49;;;;;;;3.93;3.53;;;;;;;12.81;64.26;98260.63;4140455;28;20231;-31
2022/04/06 05:14:51;;;;;;;3.83;3.53;;;;;;;11.33;68.35;98305.00;4138976;28;20227;-30
2022/04/06 05:16:53;;;;;;;4.63;3.77;;;;;;;13.24;62.02;98209.34;4137571;28;20216;-30
2022/04/06 05:18:55;;;;;;;4.33;3.90;;;;;;;13.03;62.15;98203.28;4139229;28;20209;-30
2022/04/06 05:20:58;;;;;;;5.80;4.00;;;;;;;11.32;67.18;98254.63;4138680;28;20237;-31
2022/04/06 05:22:59;;;;;;;4.70;4.00;;;;;;;10.84;68.83;98271.44;4167679;22;20588;-65
2022/04/06 05:25:04;;;;;;;4.50;4.10;;;;;;;12.53;64.03;98247.56;4165650;28;20254;-65
2022/04/06 05:27:05;;;;;;;4.43;4.03;;;;;;;10.92;69.22;98299.69;4158430;28;20243;-65
2022/04/06 05:29:07;;;;;;;7.00;4.20;;;;;;;11.17;69.05;98308.84;4160241;28;20710;-64
2022/04/06 05:31:09;;;;;;;6.00;4.77;;;;;;;12.96;63.11;98252.38;4165317;28;20244;-65
2022/04/06 05:33:11;;;;;;;5.73;4.70;;;;;;;12.13;64.63;98226.28;4175347;28;20817;-65
2022/04/06 05:35:13;;;;;;;5.50;4.50;;;;;;;12.77;62.97;98214.84;4159017;28;20324;-65
2022/04/06 05:37:14;;;;;;;5.50;5.00;;;;;;;11.42;66.82;98264.91;4181795;28;20321;-64
2022/04/06 05:39:16;;;;;;;4.93;4.40;;;;;;;12.92;63.30;98254.63;4172701;28;20316;-64
2022/04/06 05:41:17;;;;;;;6.10;4.83;;;;;;;12.92;62.88;98238.63;4179400;28;20260;-66
2022/04/06 05:43:19;;;;;;;6.57;5.10;;;;;;;12.99;62.91;98265.28;4171313;28;20289;-65
2022/04/06 05:45:21;;;;;;;6.17;4.97;;;;;;;11.49;66.90;98289.69;4189310;28;20372;-65
2022/04/06 05:47:23;;;;;;;5.63;4.83;;;;;;;12.30;65.05;98264.78;4179266;28;20235;-65
2022/04/06 05:49:25;;;;;;;5.80;5.10;;;;;;;12.62;64.80;98287.13;4184708;28;20239;-65
2022/04/06 05:51:26;;;;;;;7.00;5.00;;;;;;;12.11;64.08;98227.31;4160721;28;20316;-64
2022/04/06 05:53:28;;;;;;;7.40;4.77;;;;;;;12.67;64.51;98291.81;4176555;28;20266;-65
2022/04/06 05:55:30;;;;;;;9.50;5.33;;;;;;;12.21;63.54;98212.75;4176233;28;20283;-65
2022/04/06 05:57:31;;;;;;;5.87;4.80;;;;;;;10.43;68.79;98283.66;4154907;28;20263;-64
2022/04/06 05:59:33;;;;;;;6.83;5.47;;;;;;;11.99;66.15;98300.88;4177521;28;20728;-65
2022/04/06 06:01:35;;;;;;;6.93;5.53;;;;;;;13.45;61.30;98234.91;4190505;28;20231;-65
2022/04/06 06:03:37;;;;;;;5.33;4.83;;;;;;;13.70;60.23;98202.88;4176677;28;20247;-65
2022/04/06 06:05:38;;;;;;;7.83;5.37;;;;;;;11.33;65.83;98249.13;4179452;28;20239;-64
2022/04/06 06:07:51;;;;;;;6.20;5.47;;;;;;;10.75;69.73;98347.00;4160031;28;20240;-65
2022/04/06 06:09:53;;;;;;;5.57;4.97;;;;;;;11.81;66.01;98274.78;4170770;28;20326;-65
2022/04/06 06:11:58;;;;;;;7.13;5.63;;;;;;;13.45;61.42;98244.75;4159815;28;20744;-64
2022/04/06 06:13:59;;;;;;;7.00;5.93;;;;;;;12.93;61.79;98194.94;4157481;28;20275;-64
2022/04/06 06:16:01;;;;;;;7.10;5.50;;;;;;;12.99;61.96;98250.13;4175991;28;20318;-65
2022/04/06 06:18:03;;;;;;;6.97;5.07;;;;;;;12.42;64.14;98270.31;4180513;28;20235;-64
2022/04/06 06:20:06;;;;;;;5.60;5.00;;;;;;;13.30;61.85;98259.22;4177812;28;20272;-65
2022/04/06 06:22:07;;;;;;;5.87;5.00;;;;;;;13.60;60.78;98245.25;4177556;28;20224;-65
2022/04/06 06:24:09;;;;;;;5.33;4.80;;;;;;;13.20;62.22;98242.84;4178389;28;20247;-65
2022/04/06 06:26:11;;;;;;;5.60;5.00;;;;;;;12.45;63.90;98257.41;4177377;28;20739;-65
2022/04/06 06:28:12;;;;;;;5.20;4.70;;;;;;;12.92;62.75;98269.84;4179114;28;20657;-65
2022/04/06 06:30:14;;;;;;;7.37;4.70;;;;;;;13.12;62.07;98246.56;4178515;28;20327;-65
2022/04/06 06:32:16;;;;;;;5.77;4.77;;;;;;;11.58;64.63;98227.28;4178985;28;20277;-65
2022/04/06 06:34:18;;;;;;;7.23;4.27;;;;;;;12.45;64.51;98278.75;4176935;28;20228;-65
2022/04/06 06:36:20;;;;;;;5.70;4.70;;;;;;;12.60;64.18;98277.69;4168767;28;20274;-65
2022/04/06 06:38:22;;;;;;;5.13;3.77;;;;;;;10.45;69.78;98291.44;4159944;28;20296;-65
2022/04/06 06:40:26;;;;;;;4.30;3.90;;;;;;;11.81;66.90;98300.63;4170856;28;20224;-64
2022/04/06 06:42:27;;;;;;;7.27;4.47;;;;;;;10.71;68.46;98276.66;4176825;28;20263;-64
2022/04/06 06:44:29;;;;;;;4.63;3.90;;;;;;;12.00;66.80;98305.19;4178880;28;20319;-65
2022/04/06 06:46:31;;;;;;;5.20;4.63;;;;;;;10.52;70.92;98302.91;4177429;28;20720;-64
2022/04/06 06:48:33;;;;;;;5.33;3.97;;;;;;;11.44;67.75;98284.16;4154521;28;20233;-65
2022/04/06 06:50:34;;;;;;;5.70;4.00;;;;;;;12.14;65.79;98268.72;4177796;28;20263;-65
2022/04/06 06:52:36;;;;;;;5.50;3.60;;;;;;;12.64;64.06;98258.41;4162138;28;20243;-65
2022/04/06 06:54:42;;;;;;;4.53;3.23;;;;;;;11.57;65.90;98238.13;4177514;28;20234;-64
2022/04/06 06:56:44;;;;;;;3.77;3.47;;;;;;;13.13;62.53;98250.88;4182846;28;20306;-60
2022/04/06 06:58:46;;;;;;;4.43;4.00;;;;;;;13.80;60.51;98229.09;4178040;28;20583;-64
2022/04/06 07:00:47;;;;;;;3.57;3.27;;;;;;;12.18;65.19;98285.91;4175938;28;20239;-65
2022/04/06 07:02:49;;;;;;;4.20;3.37;;;;;;;11.22;67.24;98270.16;4175959;28;20215;-64
2022/04/06 07:04:51;;;;;;;5.23;3.90;;;;;;;12.52;64.74;98286.72;4177921;28;20309;-64
2022/04/06 07:06:52;;;;;;;3.40;3.10;;;;;;;13.35;61.63;98227.34;4177721;28;20586;-64
2022/04/06 07:08:54;;;;;;;4.20;3.77;;;;;;;13.51;61.03;98230.53;4174742;28;20306;-64
2022/04/06 07:10:57;;;;;;;4.07;3.40;;;;;;;14.09;59.71;98246.38;4173899;28;20239;-64
2022/04/06 07:12:59;;;;;;;3.90;3.50;;;;;;;13.82;59.50;98226.22;4174731;28;20255;-64
2022/04/06 07:15:01;;;;;;;4.97;3.50;;;;;;;13.99;59.49;98223.84;4178606;28;20749;-64
2022/04/06 07:17:03;;;;;;;4.80;3.40;;;;;;;13.32;61.55;98259.00;4177302;28;20254;-64
2022/04/06 07:19:05;;;;;;;4.70;3.60;;;;;;;12.67;63.10;98290.00;4179410;28;20296;-64
2022/04/06 07:21:06;;;;;;;5.27;3.57;;;;;;;12.93;61.85;98220.78;4182285;28;20223;-64
2022/04/06 07:23:08;;;;;;;4.00;3.60;;;;;;;12.47;63.86;98263.34;4186598;28;20257;-64
2022/04/06 07:25:10;;;;;;;5.30;3.47;;;;;;;13.40;61.14;98253.41;4180319;28;20236;-64
2022/04/06 07:27:12;;;;;;;3.73;3.37;;;;;;;13.30;61.07;98235.19;4185684;28;20250;-65
2022/04/06 07:29:15;;;;;;;4.43;3.43;;;;;;;12.58;60.80;98189.91;4182760;28;20732;-64
2022/04/06 07:31:17;;;;;;;5.70;4.47;;;;;;;12.45;63.44;98265.41;4182150;28;20236;-64
2022/04/06 07:33:19;;;;;;;4.93;3.30;;;;;;;12.30;63.97;98259.47;4176571;28;20786;-65
2022/04/06 07:35:22;;;;;;;3.47;3.17;;;;;;;11.54;65.62;98239.34;4186618;28;20662;-64
2022/04/06 07:37:24;;;;;;;5.53;3.27;;;;;;;13.65;61.37;98236.59;4181825;28;20314;-64
2022/04/06 07:39:27;;;;;;;5.70;3.27;;;;;;;13.10;62.54;98258.50;4174168;28;20240;-64
2022/04/06 07:41:30;;;;;;;4.60;3.23;;;;;;;13.43;60.96;98206.75;4180739;28;20251;-65
2022/04/06 07:43:31;;;;;;;3.50;3.20;;;;;;;13.31;61.09;98214.63;4181085;28;20724;-65
2022/04/06 07:45:33;;;;;;;4.17;3.77;;;;;;;13.80;60.28;98238.97;4181292;28;20250;-65
2022/04/06 07:47:37;;;;;;;5.97;3.93;;;;;;;13.85;59.79;98204.44;4181556;28;22519;-65
2022/04/06 07:49:39;;;;;;;4.77;3.57;;;;;;;12.41;63.30;98194.88;4182003;28;20235;-65
2022/04/06 07:51:41;;;;;;;4.37;3.97;;;;;;;12.33;65.27;98247.59;4181254;28;20262;-65
2022/04/06 07:53:43;;;;;;;4.73;4.17;;;;;;;12.93;64.29;98242.94;4179917;28;20223;-65
2022/04/06 07:55:50;;;;;;;6.20;4.53;;;;;;;13.71;61.78;98211.72;4178154;28;20265;-65
2022/04/06 07:57:52;;;;;;;8.27;4.80;;;;;;;12.90;64.02;98255.91;4178886;28;20231;-65
2022/04/06 07:59:55;;;;;;;5.33;4.63;;;;;;;12.67;65.00;98259.81;4177535;28;20259;-65
2022/04/06 08:01:56;;;;;;;5.30;4.80;;;;;;;13.18;62.75;98208.34;4179347;28;20244;-65
2022/04/06 08:03:58;;;;;;;6.17;4.63;;;;;;;13.52;61.89;98216.97;4179785;28;20240;-65
2022/04/06 08:06:00;;;;;;;7.10;5.00;;;;;;;13.29;61.96;98176.66;4181206;28;20232;-65
2022/04/06 08:08:01;;;;;;;6.30;5.10;;;;;;;13.14;62.58;98198.31;4182436;28;20713;-64
2022/04/06 08:10:03;;;;;;;7.00;5.10;;;;;;;13.12;62.21;98195.84;4175435;28;20751;-64
2022/04/06 08:12:05;;;;;;;6.10;4.90;;;;;;;13.63;61.86;98222.66;4179094;28;20228;-64
2022/04/06 08:14:07;;;;;;;5.30;4.80;;;;;;;13.10;62.20;98207.78;4180280;28;20278;-65
2022/04/06 08:16:09;;;;;;;7.33;4.77;;;;;;;11.43;66.16;98232.78;4178808;28;20263;-64
2022/04/06 08:18:11;;;;;;;5.70;4.50;;;;;;;13.34;62.01;98232.91;4180162;28;20235;-66
2022/04/06 08:20:15;;;;;;;5.20;4.43;;;;;;;13.31;62.36;98225.31;4182686;28;20232;-65
2022/04/06 08:22:17;;;;;;;5.67;4.40;;;;;;;13.45;61.48;98218.88;4180325;28;20302;-64
2022/04/06 08:24:18;;;;;;;6.70;4.50;;;;;;;12.76;63.68;98253.25;4180086;28;20270;-67
2022/04/06 08:26:20;;;;;;;5.43;4.40;;;;;;;13.34;61.74;98209.69;4177323;28;20259;-67
2022/04/06 08:28:22;;;;;;;4.97;4.07;;;;;;;13.03;62.11;98197.97;4181571;28;20260;-67
2022/04/06 08:30:23;;;;;;;5.50;4.13;;;;;;;13.29;61.58;98219.38;4181414;28;20749;-67
2022/04/06 08:32:25;;;;;;;5.57;4.57;;;;;;;13.38;61.16;98202.06;4180242;28;20286;-67
2022/04/06 08:34:27;;;;;;;4.97;4.00;;;;;;;12.34;63.13;98199.41;4179712;28;20279;-67
2022/04/06 08:36:28;;;;;;;9.27;6.60;;;;;;;13.45;61.08;98226.06;4181711;28;20716;-67
2022/04/06 08:38:30;;;;;;;5.97;4.07;;;;;;;13.92;59.78;98224.72;4181508;28;20824;-67
2022/04/06 08:40:33;;;;;;;6.37;4.43;;;;;;;13.66;60.19;98204.34;4186165;28;20227;-67
2022/04/06 08:42:35;;;;;;;4.90;4.30;;;;;;;14.07;59.30;98212.88;4180236;28;20263;-67
2022/04/06 08:44:38;;;;;;;6.27;5.00;;;;;;;13.59;60.27;98182.22;4178499;28;20236;-66
2022/04/06 08:46:40;;;;;;;5.13;3.73;;;;;;;13.07;61.70;98193.00;4186591;28;20236;-67
2022/04/06 08:48:47;;;;;;;6.53;5.17;;;;;;;13.94;59.63;98198.59;4184614;28;20702;-67
2022/04/06 08:50:49;;;;;;;5.83;4.47;;;;;;;13.44;60.94;98192.41;4182417;28;20252;-66
2022/04/06 08:52:51;;;;;;;3.93;3.53;;;;;;;13.55;60.22;98189.84;4187864;28;20270;-67
2022/04/06 08:55:01;;;;;;;6.57;4.97;;;;;;;13.70;60.78;98212.72;4188910;28;20669;-66
2022/04/06 08:57:05;;;;;;;7.83;4.57;;;;;;;13.62;60.67;98197.81;4179999;28;20227;-67
2022/04/06 08:59:07;;;;;;;4.87;4.30;;;;;;;13.28;61.75;98215.91;4181441;28;20263;-67
2022/04/06 09:01:09;;;;;;;4.63;4.13;;;;;;;13.52;61.21;98232.19;4180935;28;20696;-67
2022/04/06 09:03:13;;;;;;;7.23;4.10;;;;;;;13.75;60.66;98224.44;4183705;28;20239;-67
2022/04/06 09:05:15;;;;;;;6.03;4.20;;;;;;;13.95;60.76;98221.59;4180074;28;20242;-67
2022/04/06 09:07:18;;;;;;;5.57;4.60;;;;;;;14.17;59.95;98228.41;4181001;28;20236;-68
2022/04/06 09:09:26;;;;;;;7.57;6.33;;;;;;;13.37;61.89;98216.47;4170596;28;20260;-68
2022/04/06 09:11:29;;;;;;;7.40;4.97;;;;;;;13.55;61.38;98219.22;4186647;28;20268;-68
2022/04/06 09:13:31;;;;;;;6.13;4.90;;;;;;;12.94;62.46;98198.41;4172036;28;20314;-68
2022/04/06 09:15:33;;;;;;;6.10;5.13;;;;;;;13.09;62.70;98225.63;4187469;28;20770;-68
2022/04/06 09:17:44;;;;;;;7.90;5.80;;;;;;;13.42;62.33;98221.16;4179499;28;20315;-67
2022/04/06 09:19:49;;;;;;;7.83;5.23;;;;;;;13.53;61.17;98191.91;4181543;28;20235;-67
2022/04/06 09:21:54;;;;;;;10.07;5.80;;;;;;;13.29;62.12;98214.03;4183642;28;20255;-67
2022/04/06 09:23:58;;;;;;;6.80;5.40;;;;;;;13.54;61.32;98206.91;4192344;28;20240;-68
2022/04/06 09:26:11;;;;;;;6.10;5.27;;;;;;;13.21;61.81;98202.59;4186404;28;20317;-68
2022/04/06 09:28:14;;;;;;;8.83;4.87;;;;;;;13.45;60.87;98208.19;4186441;28;20335;-67
2022/04/06 09:30:16;;;;;;;5.67;4.53;;;;;;;13.61;59.72;98195.34;4180955;28;20651;-68
2022/04/06 09:32:18;;;;;;;6.30;5.40;;;;;;;13.98;59.65;98201.66;4184467;28;20270;-68
2022/04/06 09:34:35;;;;;;;5.83;4.83;;;;;;;14.17;59.05;98167.75;4174565;28;20638;-67
2022/04/06 09:36:38;;;;;;;6.13;3.90;;;;;;;12.95;59.80;98182.19;4169001;28;20331;-66
2022/04/06 09:38:41;;;;;;;4.80;4.10;;;;;;;13.32;60.32;98200.28;4178362;28;20243;-68
2022/04/06 09:40:43;;;;;;;5.87;4.40;;;;;;;13.64;59.54;98205.59;4180224;28;20424;-67